createdAt,value
2017-10-17T00:01:32.774Z,24.80
2017-10-17T00:04:00.223Z,41.53
2017-10-17T00:06:27.650Z,25.77
2017-10-17T00:08:55.868Z,23.90
2017-10-17T00:11:23.305Z,23.00
2017-10-17T00:13:50.746Z,25.33
2017-10-17T00:16:18.957Z,25.80
2017-10-17T00:18:46.404Z,21.37
2017-10-17T00:21:14.395Z,20.23
2017-10-17T00:23:41.847Z,22.77
2017-10-17T00:26:09.303Z,23.50
2017-10-17T00:28:36.744Z,27.47
2017-10-17T00:31:04.174Z,28.63
2017-10-17T00:33:32.399Z,41.63
2017-10-17T00:39:01.159Z,22.10
2017-10-17T00:41:29.368Z,24.97
2017-10-17T00:43:56.831Z,25.33
2017-10-17T00:46:24.702Z,40.83
2017-10-17T00:48:52.152Z,33.67
2017-10-17T00:51:22.278Z,37.87
2017-10-17T00:53:49.742Z,50.20
2017-10-17T00:56:17.184Z,54.70
2017-10-17T00:58:46.188Z,23.50
2017-10-17T01:01:14.309Z,20.00
2017-10-17T01:03:43.176Z,25.57
2017-10-17T01:06:10.620Z,17.07
2017-10-17T01:08:38.063Z,27.50
2017-10-17T01:11:05.508Z,17.63
2017-10-17T01:13:32.959Z,23.53
2017-10-17T01:16:00.395Z,31.97
2017-10-17T01:18:28.611Z,19.77
2017-10-17T01:20:56.059Z,26.00
2017-10-17T01:23:25.220Z,23.43
2017-10-17T01:25:54.194Z,21.90
2017-10-17T01:28:21.923Z,16.07
2017-10-17T01:30:49.354Z,23.73
2017-10-17T01:33:16.794Z,31.93
2017-10-17T01:35:45.007Z,22.20
2017-10-17T01:38:14.879Z,17.23
2017-10-17T01:40:43.108Z,22.83
2017-10-17T01:43:21.984Z,20.90
2017-10-17T01:45:50.204Z,16.17
2017-10-17T01:48:21.367Z,14.17
2017-10-17T01:50:53.960Z,54.17
2017-10-17T01:53:29.907Z,52.43
2017-10-17T01:55:57.343Z,26.50
2017-10-17T01:58:26.082Z,17.63
2017-10-17T02:00:54.291Z,20.30
2017-10-17T02:03:21.737Z,26.83
2017-10-17T02:05:51.656Z,18.73
2017-10-17T02:08:19.088Z,15.97
2017-10-17T02:13:43.419Z,14.77
2017-10-17T02:16:10.974Z,16.00
2017-10-17T02:21:48.549Z,17.73
2017-10-17T02:24:17.947Z,15.80
2017-10-17T02:26:45.942Z,31.30
2017-10-17T02:29:29.523Z,46.47
2017-10-17T02:31:56.963Z,61.23
2017-10-17T02:37:32.215Z,81.23
2017-10-17T02:40:00.387Z,111.20
2017-10-17T02:42:27.832Z,183.57
2017-10-17T02:44:56.003Z,117.37
2017-10-17T02:47:23.444Z,50.53
2017-10-17T02:49:52.344Z,61.90
2017-10-17T02:52:21.275Z,52.43
2017-10-17T02:54:48.716Z,56.57
2017-10-17T02:57:16.633Z,36.77
2017-10-17T02:59:46.887Z,30.27
2017-10-17T03:02:34.934Z,46.20
2017-10-17T03:05:03.157Z,128.10
2017-10-17T03:07:30.595Z,41.93
2017-10-17T03:09:58.069Z,47.07
2017-10-17T03:12:25.501Z,60.70
2017-10-17T03:14:57.876Z,64.50
2017-10-17T03:17:26.107Z,91.17
2017-10-17T03:19:53.984Z,34.33
2017-10-17T03:22:22.180Z,45.97
2017-10-17T03:24:51.787Z,46.97
2017-10-17T03:27:19.219Z,31.53
2017-10-17T03:29:47.438Z,58.30
2017-10-17T03:32:14.876Z,39.23
2017-10-17T03:34:42.328Z,60.77
2017-10-17T03:37:31.377Z,74.10
2017-10-17T03:46:04.836Z,55.77
2017-10-17T03:48:32.272Z,59.17
2017-10-17T03:51:03.067Z,81.07
2017-10-17T03:53:39.070Z,26.10
2017-10-17T03:56:07.068Z,15.97
2017-10-17T03:58:38.770Z,16.10
2017-10-17T04:01:07.603Z,22.27
2017-10-17T04:03:53.432Z,16.63
2017-10-17T04:06:30.924Z,22.87
2017-10-17T04:09:00.727Z,17.50
2017-10-17T04:11:28.595Z,40.90
2017-10-17T04:14:18.253Z,93.50
2017-10-17T04:20:05.872Z,19.87
2017-10-17T04:22:42.286Z,25.33
2017-10-17T04:25:15.627Z,23.50
2017-10-17T04:27:46.614Z,24.57
2017-10-17T04:30:18.697Z,18.33
2017-10-17T04:36:12.599Z,43.73
2017-10-17T04:38:40.557Z,28.03
2017-10-17T04:41:25.607Z,42.50
2017-10-17T04:44:06.160Z,27.77
2017-10-17T04:46:47.507Z,34.33
2017-10-17T04:49:17.185Z,25.97
2017-10-17T04:52:05.355Z,27.17
2017-10-17T04:54:40.491Z,77.70
2017-10-17T05:00:11.243Z,37.67
2017-10-17T05:02:44.218Z,19.30
2017-10-17T05:08:28.663Z,33.70
2017-10-17T05:11:03.696Z,23.43
2017-10-17T05:13:50.934Z,21.50
2017-10-17T05:19:11.109Z,48.17
2017-10-17T05:21:38.556Z,28.27
2017-10-17T05:24:29.522Z,29.90
2017-10-17T05:29:52.394Z,19.80
2017-10-17T05:32:21.542Z,40.23
2017-10-17T05:34:48.978Z,31.73
2017-10-17T05:37:22.127Z,24.67
2017-10-17T05:39:52.227Z,28.93
2017-10-17T05:42:19.908Z,23.30
2017-10-17T05:44:57.254Z,26.47
2017-10-17T05:50:26.236Z,40.33
2017-10-17T05:52:54.438Z,21.77
2017-10-17T05:55:21.886Z,25.83
2017-10-17T05:57:49.876Z,25.30
2017-10-17T06:00:17.318Z,22.37
2017-10-17T06:02:45.571Z,18.03
2017-10-17T06:05:13.782Z,27.63
2017-10-17T06:07:41.218Z,26.77
2017-10-17T06:10:08.670Z,25.00
2017-10-17T06:12:36.872Z,17.33
2017-10-17T06:15:04.875Z,18.37
2017-10-17T06:17:32.313Z,51.53
2017-10-17T06:20:00.523Z,65.17
2017-10-17T06:22:27.968Z,38.03
2017-10-17T06:24:55.434Z,22.73
2017-10-17T06:27:22.870Z,27.17
2017-10-17T06:29:50.312Z,32.43
2017-10-17T06:32:17.763Z,36.97
2017-10-17T06:34:51.684Z,28.43
2017-10-17T06:37:19.129Z,45.17
2017-10-17T06:39:47.380Z,65.07
2017-10-17T06:42:14.830Z,42.27
2017-10-17T06:44:43.024Z,67.47
2017-10-17T06:47:10.467Z,70.60
2017-10-17T06:49:37.895Z,53.30
2017-10-17T06:52:05.347Z,89.80
2017-10-17T06:54:39.606Z,50.33
2017-10-17T06:57:07.055Z,57.30
2017-10-17T06:59:34.491Z,54.03
2017-10-17T07:02:02.712Z,32.00
2017-10-17T07:04:30.147Z,34.43
2017-10-17T07:06:57.589Z,37.23
2017-10-17T07:09:25.795Z,34.17
2017-10-17T07:11:53.230Z,36.07
2017-10-17T07:14:21.450Z,35.17
2017-10-17T07:16:48.883Z,40.87
2017-10-17T07:19:16.795Z,70.00
2017-10-17T07:21:44.239Z,31.40
2017-10-17T07:24:11.684Z,58.20
2017-10-17T07:26:39.137Z,55.33
2017-10-17T07:29:06.596Z,51.50
2017-10-17T07:31:34.750Z,53.73
2017-10-17T07:34:02.328Z,31.83
2017-10-17T07:36:29.783Z,30.63
2017-10-17T07:38:57.242Z,21.37
2017-10-17T07:41:24.694Z,20.07
2017-10-17T07:43:52.130Z,19.83
2017-10-17T07:46:22.955Z,25.63
2017-10-17T07:48:51.411Z,15.73
2017-10-17T07:51:19.555Z,14.63
2017-10-17T07:53:47.318Z,11.27
2017-10-17T07:56:14.784Z,17.20
2017-10-17T07:58:42.226Z,9.87
2017-10-17T08:01:09.680Z,14.70
2017-10-17T08:03:37.125Z,9.40
2017-10-17T08:06:04.588Z,27.67
2017-10-17T08:08:32.862Z,9.33
2017-10-17T08:11:01.312Z,12.20
2017-10-17T08:13:29.524Z,9.77
2017-10-17T08:15:57.750Z,20.50
2017-10-17T08:18:26.396Z,34.07
2017-10-17T08:20:53.855Z,55.80
2017-10-17T08:23:21.522Z,7.27
2017-10-17T08:25:49.760Z,42.83
2017-10-17T08:28:17.219Z,7.80
2017-10-17T08:30:45.479Z,39.37
2017-10-17T08:33:13.824Z,9.07
2017-10-17T08:35:41.669Z,8.17
2017-10-17T08:38:09.118Z,9.60
2017-10-17T08:40:36.548Z,12.93
2017-10-17T08:43:03.987Z,9.40
2017-10-17T08:45:32.192Z,8.50
2017-10-17T08:47:59.646Z,8.00
2017-10-17T08:50:27.084Z,9.65
2017-10-17T08:52:54.546Z,9.40
2017-10-17T08:55:21.982Z,8.40
2017-10-17T08:57:50.194Z,9.93
2017-10-17T09:00:17.636Z,11.00
2017-10-17T09:02:45.084Z,11.38
2017-10-17T09:05:12.541Z,10.85
2017-10-17T09:07:40.746Z,11.30
2017-10-17T09:10:10.610Z,9.23
2017-10-17T09:12:38.826Z,11.68
2017-10-17T09:15:06.322Z,12.98
2017-10-17T09:17:35.122Z,11.90
2017-10-17T09:20:02.997Z,16.42
2017-10-17T09:22:30.443Z,16.87
2017-10-17T09:24:58.687Z,17.08
2017-10-17T09:27:26.142Z,14.90
2017-10-17T09:29:53.577Z,15.23
2017-10-17T09:32:21.036Z,18.15
2017-10-17T09:34:48.471Z,14.52
2017-10-17T09:37:16.777Z,17.50
2017-10-17T09:39:44.215Z,15.43
2017-10-17T09:42:11.671Z,23.33
2017-10-17T09:44:39.659Z,16.85
2017-10-17T09:47:07.119Z,16.95
2017-10-17T09:49:34.574Z,15.40
2017-10-17T09:52:02.018Z,17.08
2017-10-17T09:54:29.464Z,19.15
2017-10-17T09:56:57.679Z,16.70
2017-10-17T09:59:25.120Z,15.77
2017-10-17T10:01:52.566Z,17.23
2017-10-17T10:04:20.015Z,14.15
2017-10-17T10:06:47.472Z,14.98
2017-10-17T10:09:15.440Z,12.75
2017-10-17T10:11:42.882Z,18.75
2017-10-17T10:14:11.839Z,13.98
2017-10-17T10:16:39.450Z,15.05
2017-10-17T10:19:07.337Z,16.40
2017-10-17T10:21:34.796Z,15.18
2017-10-17T10:24:03.032Z,12.93
2017-10-17T10:26:31.255Z,13.20
2017-10-17T10:29:00.434Z,14.98
2017-10-17T10:31:27.892Z,13.32
2017-10-17T10:33:55.327Z,12.82
2017-10-17T10:36:23.535Z,16.45
2017-10-17T10:38:51.603Z,15.80
2017-10-17T10:41:19.074Z,11.65
2017-10-17T10:43:46.507Z,11.82
2017-10-17T10:46:14.226Z,13.52
2017-10-17T10:48:41.664Z,12.52
2017-10-17T10:51:09.867Z,10.73
2017-10-17T10:53:37.314Z,13.25
2017-10-17T10:56:04.758Z,11.43
2017-10-17T10:58:33.002Z,9.85
2017-10-17T11:01:00.422Z,9.85
2017-10-17T11:03:29.090Z,8.30
2017-10-17T11:05:56.524Z,12.27
2017-10-17T11:08:23.984Z,15.30
2017-10-17T11:10:52.159Z,10.10
2017-10-17T11:13:19.611Z,13.80
2017-10-17T11:15:47.113Z,29.48
2017-10-17T11:18:15.330Z,10.95
2017-10-17T11:20:42.786Z,11.77
2017-10-17T11:23:10.787Z,12.98
2017-10-17T11:25:38.233Z,12.23
2017-10-17T11:28:06.210Z,10.38
2017-10-17T11:30:33.666Z,10.50
2017-10-17T11:33:01.351Z,10.93
2017-10-17T11:35:28.786Z,9.70
2017-10-17T11:37:56.656Z,17.20
2017-10-17T11:40:35.979Z,11.60
2017-10-17T11:43:16.247Z,12.85
2017-10-17T11:45:44.182Z,8.80
2017-10-17T11:48:12.515Z,10.80
2017-10-17T11:50:40.740Z,11.85
2017-10-17T11:53:08.199Z,11.80
2017-10-17T11:55:35.651Z,10.35
2017-10-17T11:58:04.053Z,13.93
2017-10-17T12:00:31.621Z,10.20
2017-10-17T12:02:59.070Z,14.87
2017-10-17T12:05:27.207Z,10.13
2017-10-17T12:07:54.690Z,11.82
2017-10-17T12:10:22.840Z,11.48
2017-10-17T12:12:51.183Z,15.20
2017-10-17T12:15:18.847Z,9.75
2017-10-17T12:17:47.066Z,12.00
2017-10-17T12:20:14.502Z,9.68
2017-10-17T12:22:41.958Z,8.95
2017-10-17T12:25:09.958Z,9.82
2017-10-17T12:27:37.419Z,14.98
2017-10-17T12:30:05.910Z,10.45
2017-10-17T12:32:34.948Z,11.43
2017-10-17T12:35:03.156Z,19.58
2017-10-17T12:37:30.599Z,17.08
2017-10-17T12:39:58.048Z,10.95
2017-10-17T12:42:26.255Z,10.90
2017-10-17T12:44:53.703Z,17.25
2017-10-17T12:47:21.155Z,13.50
2017-10-17T12:49:48.600Z,9.07
2017-10-17T12:52:16.044Z,12.52
2017-10-17T12:54:44.264Z,12.15
2017-10-17T12:57:11.690Z,13.20
2017-10-17T12:59:39.573Z,11.07
2017-10-17T13:02:07.012Z,20.27
2017-10-17T13:04:34.468Z,11.82
2017-10-17T13:07:01.915Z,18.25
2017-10-17T13:09:33.143Z,11.23
2017-10-17T13:12:00.582Z,8.60
2017-10-17T13:14:28.044Z,13.95
2017-10-17T13:16:55.483Z,11.90
2017-10-17T13:19:22.934Z,14.80
2017-10-17T13:21:50.498Z,10.30
2017-10-17T13:24:18.367Z,13.02
2017-10-17T13:26:45.815Z,12.50
2017-10-17T13:29:13.259Z,10.35
2017-10-17T13:31:41.378Z,12.30
2017-10-17T13:34:09.218Z,12.82
2017-10-17T13:36:36.660Z,10.18
2017-10-17T13:39:04.127Z,16.08
2017-10-17T13:41:31.559Z,11.68
2017-10-17T13:43:59.003Z,15.95
2017-10-17T13:46:26.451Z,10.45
2017-10-17T13:48:55.083Z,14.63
2017-10-17T13:51:22.525Z,17.52
2017-10-17T13:53:50.024Z,12.27
2017-10-17T13:56:17.495Z,19.98
2017-10-17T13:58:45.742Z,12.32
2017-10-17T14:01:13.165Z,13.48
2017-10-17T14:03:41.347Z,12.98
2017-10-17T14:06:11.248Z,7.50
2017-10-17T14:08:38.703Z,11.05
2017-10-17T14:11:06.140Z,8.07
2017-10-17T14:13:34.359Z,13.00
2017-10-17T14:16:01.807Z,8.38
2017-10-17T14:18:29.250Z,18.40
2017-10-17T14:20:56.691Z,8.07
2017-10-17T14:23:24.898Z,8.43
2017-10-17T14:25:52.734Z,8.75
2017-10-17T14:28:21.053Z,8.52
2017-10-17T14:30:49.072Z,12.23
2017-10-17T14:33:16.535Z,6.32
2017-10-17T14:35:43.962Z,10.18
2017-10-17T14:38:11.412Z,14.00
2017-10-17T14:40:38.851Z,8.63
2017-10-17T14:43:06.307Z,9.20
2017-10-17T14:45:34.297Z,14.05
2017-10-17T14:48:02.172Z,8.27
2017-10-17T14:50:29.616Z,9.60
2017-10-17T14:52:57.062Z,13.27
2017-10-17T14:55:24.509Z,9.85
2017-10-17T14:57:52.032Z,13.30
2017-10-17T15:00:20.227Z,8.25
2017-10-17T15:02:48.706Z,12.93
2017-10-17T15:05:16.156Z,12.70
2017-10-17T15:07:45.747Z,14.25
2017-10-17T15:10:15.679Z,7.62
2017-10-17T15:12:43.150Z,9.55
2017-10-17T15:15:10.587Z,12.82
2017-10-17T15:17:38.045Z,9.45
2017-10-17T15:20:06.260Z,10.00
2017-10-17T15:22:34.259Z,12.07
2017-10-17T15:25:01.695Z,10.40
2017-10-17T15:27:29.143Z,14.35
2017-10-17T15:29:56.591Z,7.15
2017-10-17T15:32:24.040Z,9.88
2017-10-17T15:34:51.499Z,10.18
2017-10-17T15:37:18.944Z,12.43
2017-10-17T15:39:46.400Z,13.38
2017-10-17T15:42:13.843Z,12.77
2017-10-17T15:44:42.064Z,13.48
2017-10-17T15:47:09.513Z,17.58
2017-10-17T15:49:36.961Z,9.85
2017-10-17T15:52:04.410Z,13.32
2017-10-17T15:54:31.873Z,12.65
2017-10-17T15:56:59.319Z,16.65
2017-10-17T15:59:30.046Z,10.30
2017-10-17T16:01:57.651Z,11.18
2017-10-17T16:04:25.103Z,12.07
2017-10-17T16:06:53.299Z,7.75
2017-10-17T16:09:21.299Z,9.70
2017-10-17T16:11:49.518Z,7.25
2017-10-17T16:14:16.959Z,9.73
2017-10-17T16:16:44.406Z,11.25
2017-10-17T16:19:11.874Z,8.70
2017-10-17T16:21:39.316Z,9.48
2017-10-17T16:24:07.048Z,11.32
2017-10-17T16:26:35.267Z,17.65
2017-10-17T16:29:02.720Z,9.50
2017-10-17T16:31:30.155Z,18.50
2017-10-17T16:33:58.366Z,11.47
2017-10-17T16:36:25.803Z,12.63
2017-10-17T16:38:53.247Z,9.43
2017-10-17T16:41:21.451Z,12.20
2017-10-17T16:43:48.914Z,21.80
2017-10-17T16:46:16.467Z,20.63
2017-10-17T16:48:44.023Z,23.73
2017-10-17T16:51:11.485Z,16.73
2017-10-17T16:53:38.936Z,17.37
2017-10-17T16:56:09.674Z,21.30
2017-10-17T16:58:37.124Z,19.87
2017-10-17T17:01:04.562Z,19.23
2017-10-17T17:03:32.776Z,21.90
2017-10-17T17:06:00.330Z,12.77
2017-10-17T17:08:27.826Z,14.07
2017-10-17T17:10:55.289Z,17.73
2017-10-17T17:13:22.733Z,24.57
2017-10-17T17:15:50.182Z,21.07
2017-10-17T17:18:17.648Z,17.40
2017-10-17T17:20:45.123Z,17.10
2017-10-17T17:23:12.567Z,19.57
2017-10-17T17:25:40.035Z,20.70
2017-10-17T17:28:07.479Z,22.73
2017-10-17T17:30:34.937Z,22.80
2017-10-17T17:33:02.382Z,23.03
2017-10-17T17:35:29.849Z,27.50
2017-10-17T17:37:57.599Z,21.97
2017-10-17T17:40:25.283Z,26.80
2017-10-17T17:42:52.739Z,22.03
2017-10-17T17:45:20.187Z,29.73
2017-10-17T17:47:47.631Z,26.37
2017-10-17T17:50:15.088Z,28.20
2017-10-17T17:52:42.535Z,26.97
2017-10-17T17:55:10.606Z,25.40
2017-10-17T17:57:38.050Z,32.43
2017-10-17T18:00:05.647Z,20.40
2017-10-17T18:02:33.090Z,22.37
2017-10-17T18:05:00.538Z,19.00
2017-10-17T18:07:28.971Z,22.83
2017-10-17T18:09:57.195Z,29.93
2017-10-17T18:12:24.629Z,27.13
2017-10-17T18:14:52.644Z,28.50
2017-10-17T18:17:20.109Z,22.00
2017-10-17T18:19:47.563Z,26.23
2017-10-17T18:22:15.019Z,20.90
2017-10-17T18:24:43.198Z,25.00
2017-10-17T18:27:10.643Z,36.47
2017-10-17T18:29:38.106Z,23.33
2017-10-17T18:32:06.045Z,22.10
2017-10-17T18:34:33.507Z,24.73
2017-10-17T18:37:01.012Z,19.23
2017-10-17T18:39:29.449Z,23.70
2017-10-17T18:41:56.936Z,27.57
2017-10-17T18:44:24.388Z,21.67
2017-10-17T18:46:51.839Z,31.73
2017-10-17T18:49:22.124Z,25.77
2017-10-17T18:51:49.728Z,24.83
2017-10-17T18:54:17.176Z,28.10
2017-10-17T18:56:44.644Z,55.23
2017-10-17T18:59:12.120Z,35.10
2017-10-17T19:01:40.366Z,27.50
2017-10-17T19:04:07.802Z,30.43
2017-10-17T19:06:35.710Z,26.60
2017-10-17T19:09:03.156Z,29.13
2017-10-17T19:11:30.594Z,53.57
2017-10-17T19:13:58.619Z,38.03
2017-10-17T19:16:26.819Z,28.67
2017-10-17T19:18:54.276Z,25.40
2017-10-17T19:21:21.719Z,27.70
2017-10-17T19:23:49.179Z,25.27
2017-10-17T19:26:16.711Z,32.47
2017-10-17T19:28:45.711Z,34.00
2017-10-17T19:31:14.909Z,47.37
2017-10-17T19:33:43.116Z,35.60
2017-10-17T19:36:10.572Z,27.50
2017-10-17T19:38:38.038Z,25.43
2017-10-17T19:41:06.543Z,41.27
2017-10-17T19:43:34.570Z,38.60
2017-10-17T19:46:02.029Z,37.97
2017-10-17T19:48:29.464Z,36.77
2017-10-17T19:50:57.697Z,28.33
2017-10-17T19:53:25.159Z,24.67
2017-10-17T19:55:52.612Z,19.97
2017-10-17T19:58:20.767Z,27.37
2017-10-17T20:00:48.220Z,29.90
2017-10-17T20:03:16.092Z,24.23
2017-10-17T20:05:43.541Z,29.33
2017-10-17T20:08:10.999Z,61.40
2017-10-17T20:10:38.454Z,47.87
2017-10-17T20:13:05.915Z,56.67
2017-10-17T20:15:33.372Z,45.30
2017-10-17T20:18:07.448Z,30.20
2017-10-17T20:20:35.706Z,54.70
2017-10-17T20:23:03.151Z,52.47
2017-10-17T20:25:30.601Z,40.43
2017-10-17T20:27:58.103Z,52.87
2017-10-17T20:30:26.321Z,66.50
2017-10-17T20:32:53.757Z,70.33
2017-10-17T20:35:21.661Z,49.80
2017-10-17T20:37:49.669Z,37.73
2017-10-17T20:40:17.894Z,41.23
2017-10-17T20:42:45.445Z,42.33
2017-10-17T20:45:13.066Z,55.97
2017-10-17T20:47:41.726Z,46.40
2017-10-17T20:50:09.747Z,58.03
2017-10-17T20:52:37.313Z,54.47
2017-10-17T20:55:04.767Z,37.93
2017-10-17T20:57:32.220Z,32.37
2017-10-17T20:59:59.664Z,29.73
2017-10-17T21:02:27.411Z,20.27
2017-10-17T21:04:55.627Z,32.67
2017-10-17T21:07:23.068Z,22.77
2017-10-17T21:09:50.515Z,27.13
2017-10-17T21:12:19.114Z,22.80
2017-10-17T21:14:46.546Z,16.70
2017-10-17T21:17:14.776Z,17.17
2017-10-17T21:19:42.228Z,23.60
2017-10-17T21:22:09.665Z,17.50
2017-10-17T21:24:37.515Z,12.03
2017-10-17T21:27:05.234Z,14.33
2017-10-17T21:29:32.674Z,21.97
2017-10-17T21:32:00.128Z,28.93
2017-10-17T21:34:27.987Z,31.07
2017-10-17T21:36:55.432Z,34.37
2017-10-17T21:39:22.871Z,25.60
2017-10-17T21:41:51.124Z,22.80
2017-10-17T21:44:19.446Z,29.27
2017-10-17T21:46:47.023Z,33.50
2017-10-17T21:49:14.474Z,19.80
2017-10-17T21:51:42.742Z,18.83
2017-10-17T21:54:10.527Z,18.67
2017-10-17T21:56:37.967Z,14.97
2017-10-17T21:59:05.425Z,23.50
2017-10-17T22:01:33.230Z,23.83
2017-10-17T22:04:00.658Z,33.27
2017-10-17T22:06:28.107Z,66.43
2017-10-17T22:08:55.590Z,64.77
2017-10-17T22:11:24.032Z,53.00
2017-10-17T22:13:51.984Z,40.90
2017-10-17T22:16:19.418Z,29.07
2017-10-17T22:18:47.632Z,31.77
2017-10-17T22:21:15.083Z,25.47
2017-10-17T22:23:42.523Z,18.63
2017-10-17T22:26:09.975Z,26.60
2017-10-17T22:28:39.001Z,18.30
2017-10-17T22:31:06.476Z,23.40
2017-10-17T22:33:34.454Z,32.23
2017-10-17T22:36:01.916Z,27.47
2017-10-17T22:38:29.360Z,28.17
2017-10-17T22:40:57.227Z,30.83
2017-10-17T22:43:24.678Z,24.90
2017-10-17T22:45:52.130Z,33.93
2017-10-17T22:48:19.682Z,31.57
2017-10-17T22:50:47.114Z,23.50
2017-10-17T22:53:15.395Z,29.63
2017-10-17T22:55:43.624Z,27.50
2017-10-17T22:58:11.595Z,30.87
2017-10-17T23:00:39.042Z,28.07
2017-10-17T23:03:06.475Z,27.50
2017-10-17T23:05:33.931Z,20.90
2017-10-17T23:08:01.371Z,19.20
2017-10-17T23:10:28.865Z,21.43
2017-10-17T23:12:56.307Z,24.60
2017-10-17T23:15:24.298Z,26.73
2017-10-17T23:18:04.963Z,24.43
2017-10-17T23:20:37.987Z,24.90
2017-10-17T23:23:06.604Z,20.43
2017-10-17T23:25:34.749Z,22.30
2017-10-17T23:28:03.164Z,20.17
2017-10-17T23:30:31.041Z,19.93
2017-10-17T23:32:58.481Z,19.73
2017-10-17T23:35:26.507Z,34.80
2017-10-17T23:37:53.940Z,50.83
2017-10-17T23:40:21.387Z,71.97
2017-10-17T23:42:48.826Z,66.23
2017-10-17T23:45:16.274Z,52.53
2017-10-17T23:47:43.716Z,35.80
2017-10-17T23:50:11.930Z,20.20
2017-10-17T23:52:39.368Z,16.60
2017-10-17T23:55:07.358Z,27.23
2017-10-17T23:57:35.371Z,36.30
